createdAt,value
2023-08-14T00:02:53.271Z,57.18
2023-08-14T00:05:56.222Z,57.39
2023-08-14T00:08:58.500Z,57.42
2023-08-14T00:12:02.580Z,57.57
2023-08-14T00:15:05.114Z,57.60
2023-08-14T00:18:08.029Z,57.84
2023-08-14T00:21:10.519Z,57.74
2023-08-14T00:24:13.512Z,57.36
2023-08-14T00:27:15.909Z,57.62
2023-08-14T00:30:19.012Z,58.01
2023-08-14T00:33:21.436Z,58.27
2023-08-14T00:36:24.427Z,58.51
2023-08-14T00:39:26.829Z,58.73
2023-08-14T00:42:29.772Z,58.75
2023-08-14T00:45:45.418Z,58.88
2023-08-14T00:48:49.726Z,58.82
2023-08-14T00:51:52.213Z,58.68
2023-08-14T00:54:55.245Z,59.06
2023-08-14T00:57:57.773Z,59.10
2023-08-14T01:01:01.426Z,59.13
2023-08-14T01:04:04.275Z,59.07
2023-08-14T01:07:07.185Z,59.15
2023-08-14T01:10:10.209Z,59.41
2023-08-14T01:13:39.372Z,59.38
2023-08-14T01:16:45.132Z,59.43
2023-08-14T01:19:51.187Z,59.43
2023-08-14T01:23:12.474Z,59.54
2023-08-14T01:26:15.985Z,59.72
2023-08-14T01:29:18.370Z,59.60
2023-08-14T01:32:21.205Z,59.38
2023-08-14T01:35:25.143Z,59.17
2023-08-14T01:38:38.925Z,59.41
2023-08-14T01:41:46.124Z,59.71
2023-08-14T01:44:49.958Z,59.68
2023-08-14T01:47:54.494Z,59.80
2023-08-14T01:50:58.676Z,59.79
2023-08-14T01:54:01.106Z,59.79
2023-08-14T01:57:04.152Z,59.93
2023-08-14T02:00:09.174Z,60.19
2023-08-14T02:03:15.195Z,60.40
2023-08-14T02:06:17.847Z,60.40
2023-08-14T02:09:20.438Z,60.52
2023-08-14T02:12:23.054Z,60.92
2023-08-14T02:15:25.798Z,61.31
2023-08-14T02:18:28.523Z,61.48
2023-08-14T02:21:31.104Z,61.48
2023-08-14T02:24:33.763Z,61.18
2023-08-14T02:27:36.516Z,61.13
2023-08-14T02:30:42.447Z,61.05
2023-08-14T02:33:45.215Z,60.99
2023-08-14T02:36:47.988Z,61.05
2023-08-14T02:39:51.218Z,61.28
2023-08-14T02:42:53.837Z,61.38
2023-08-14T02:45:56.396Z,61.39
2023-08-14T02:48:59.226Z,61.17
2023-08-14T02:52:02.130Z,61.36
2023-08-14T02:55:05.229Z,61.50
2023-08-14T02:58:08.172Z,61.65
2023-08-14T03:01:10.902Z,61.85
2023-08-14T03:04:14.337Z,61.96
2023-08-14T03:07:17.058Z,62.25
2023-08-14T03:10:19.634Z,62.43
2023-08-14T03:13:22.421Z,62.61
2023-08-14T03:16:25.122Z,62.73
2023-08-14T03:19:27.844Z,62.83
2023-08-14T03:22:30.609Z,62.65
2023-08-14T03:25:33.318Z,62.69
2023-08-14T03:28:36.061Z,62.97
2023-08-14T03:31:38.791Z,62.97
2023-08-14T03:34:41.506Z,63.22
2023-08-14T03:37:44.802Z,63.18
2023-08-14T03:40:48.197Z,63.08
2023-08-14T03:43:50.904Z,63.18
2023-08-14T03:46:53.552Z,63.38
2023-08-14T03:49:56.193Z,63.48
2023-08-14T03:52:58.829Z,63.53
2023-08-14T03:56:01.449Z,63.31
2023-08-14T03:59:06.114Z,63.28
2023-08-14T04:02:09.219Z,63.32
2023-08-14T04:05:12.171Z,63.55
2023-08-14T04:08:15.633Z,63.83
2023-08-14T04:11:19.376Z,63.92
2023-08-14T04:14:21.689Z,63.96
2023-08-14T04:17:25.002Z,63.75
2023-08-14T04:20:27.321Z,63.60
2023-08-14T04:23:31.630Z,63.40
2023-08-14T04:26:34.034Z,63.41
2023-08-14T04:29:37.264Z,63.54
2023-08-14T04:32:39.671Z,63.62
2023-08-14T04:35:42.606Z,63.54
2023-08-14T04:38:45.220Z,63.45
2023-08-14T04:41:48.186Z,63.73
2023-08-14T04:44:51.658Z,63.70
2023-08-14T04:47:57.131Z,63.42
2023-08-14T04:51:00.320Z,63.17
2023-08-14T04:54:03.653Z,62.79
2023-08-14T04:57:06.059Z,62.55
2023-08-14T05:00:09.643Z,62.13
2023-08-14T05:03:12.370Z,61.67
2023-08-14T05:06:15.344Z,62.17
2023-08-14T05:09:26.355Z,62.14
2023-08-14T05:12:31.182Z,62.42
2023-08-14T05:15:33.605Z,62.34
2023-08-14T05:18:36.605Z,62.21
2023-08-14T05:21:39.011Z,61.74
2023-08-14T05:24:42.036Z,61.46
2023-08-14T05:27:44.363Z,61.16
2023-08-14T05:30:47.279Z,60.53
2023-08-14T05:33:50.162Z,60.69
2023-08-14T05:36:53.053Z,60.70
2023-08-14T05:39:55.388Z,60.49
2023-08-14T05:43:05.012Z,60.24
2023-08-14T05:46:07.544Z,59.94
2023-08-14T05:49:10.580Z,59.59
2023-08-14T05:52:13.186Z,59.43
2023-08-14T05:55:16.667Z,59.45
2023-08-14T05:58:19.024Z,58.99
2023-08-14T06:01:21.973Z,59.19
2023-08-14T06:04:24.731Z,58.35
2023-08-14T06:07:27.434Z,58.40
2023-08-14T06:10:30.222Z,57.97
2023-08-14T06:13:33.058Z,57.93
2023-08-14T06:16:35.835Z,57.87
2023-08-14T06:19:38.548Z,57.50
2023-08-14T06:22:42.171Z,56.60
2023-08-14T06:25:44.826Z,56.57
2023-08-14T06:28:47.715Z,55.83
2023-08-14T06:31:50.350Z,55.97
2023-08-14T06:34:52.929Z,55.56
2023-08-14T06:37:56.543Z,55.38
2023-08-14T06:40:59.368Z,54.81
2023-08-14T06:44:02.080Z,54.29
2023-08-14T06:47:04.852Z,53.37
2023-08-14T06:50:07.535Z,52.85
2023-08-14T06:53:10.371Z,52.16
2023-08-14T06:56:12.980Z,51.57
2023-08-14T06:59:15.850Z,50.04
2023-08-14T07:02:18.903Z,50.12
2023-08-14T07:05:21.863Z,48.14
2023-08-14T07:08:25.398Z,47.60
2023-08-14T07:11:28.160Z,47.86
2023-08-14T07:14:32.506Z,47.33
2023-08-14T07:17:35.256Z,46.31
2023-08-14T07:20:38.027Z,45.89
2023-08-14T07:23:40.715Z,45.14
2023-08-14T07:26:43.767Z,44.85
2023-08-14T07:29:46.458Z,43.85
2023-08-14T07:32:49.238Z,43.50
2023-08-14T07:35:51.934Z,41.94
2023-08-14T07:38:54.629Z,39.99
2023-08-14T07:41:57.439Z,39.43
2023-08-14T07:45:00.011Z,38.48
2023-08-14T07:48:02.686Z,38.64
2023-08-14T07:51:06.437Z,37.39
2023-08-14T07:54:09.105Z,37.23
2023-08-14T07:57:11.677Z,35.86
2023-08-14T08:00:17.363Z,36.13
2023-08-14T08:03:20.738Z,33.73
2023-08-14T08:06:23.233Z,33.65
2023-08-14T08:09:26.164Z,33.33
2023-08-14T08:12:28.893Z,32.54
2023-08-14T08:15:32.169Z,31.13
2023-08-14T08:18:34.614Z,31.22
2023-08-14T08:21:38.096Z,30.44
2023-08-14T08:24:40.451Z,30.56
2023-08-14T08:27:43.344Z,29.18
2023-08-14T08:30:46.007Z,27.31
2023-08-14T08:33:49.044Z,26.68
2023-08-14T08:36:51.441Z,26.18
2023-08-14T08:39:54.389Z,25.77
2023-08-14T08:42:57.276Z,25.10
2023-08-14T08:46:04.012Z,24.24
2023-08-14T08:49:06.968Z,23.91
2023-08-14T08:52:11.337Z,24.44
2023-08-14T08:55:16.308Z,24.13
2023-08-14T08:58:20.380Z,23.87
2023-08-14T09:01:23.149Z,23.79
2023-08-14T09:04:26.771Z,24.67
2023-08-14T09:07:29.556Z,24.29
2023-08-14T09:10:32.483Z,22.53
2023-08-14T09:13:34.768Z,22.47
2023-08-14T09:16:37.669Z,21.72
2023-08-14T09:19:41.083Z,21.61
2023-08-14T09:22:43.998Z,21.64
2023-08-14T09:25:46.955Z,21.61
2023-08-14T09:28:50.041Z,20.84
2023-08-14T09:31:53.047Z,21.13
2023-08-14T09:35:00.165Z,21.29
2023-08-14T09:38:03.181Z,21.31
2023-08-14T09:41:06.157Z,20.51
2023-08-14T09:44:08.730Z,21.03
2023-08-14T09:47:14.846Z,20.76
2023-08-14T09:50:18.996Z,20.59
2023-08-14T09:53:21.916Z,21.01
2023-08-14T09:56:25.128Z,20.86
2023-08-14T09:59:28.132Z,20.47
2023-08-14T10:02:32.831Z,20.36
2023-08-14T10:05:39.026Z,20.56
2023-08-14T10:08:43.614Z,20.33
2023-08-14T10:11:47.231Z,20.83
2023-08-14T10:14:56.324Z,21.01
2023-08-14T10:18:00.791Z,20.85
2023-08-14T10:21:05.653Z,20.42
2023-08-14T10:24:09.069Z,21.21
2023-08-14T10:27:12.222Z,20.53
2023-08-14T10:30:15.653Z,19.85
2023-08-14T10:33:20.373Z,20.08
2023-08-14T10:36:27.331Z,19.46
2023-08-14T10:39:34.982Z,20.07
2023-08-14T10:42:38.004Z,19.67
2023-08-14T10:45:40.352Z,19.20
2023-08-14T10:48:44.514Z,20.02
2023-08-14T10:51:47.116Z,19.71
2023-08-14T10:54:54.372Z,19.30
2023-08-14T10:57:56.807Z,19.69
2023-08-14T11:01:00.026Z,18.90
2023-08-14T11:04:06.468Z,19.28
2023-08-14T11:07:13.093Z,19.56
2023-08-14T11:10:15.891Z,19.17
2023-08-14T11:13:18.863Z,19.20
2023-08-14T11:16:22.015Z,19.74
2023-08-14T11:19:25.348Z,20.20
2023-08-14T11:22:27.608Z,19.77
2023-08-14T11:25:31.251Z,19.94
2023-08-14T11:28:33.899Z,19.76
2023-08-14T11:31:44.678Z,19.98
2023-08-14T11:34:51.199Z,20.33
2023-08-14T11:37:54.203Z,21.11
2023-08-14T11:40:56.548Z,20.60
2023-08-14T11:43:59.577Z,20.11
2023-08-14T11:47:04.354Z,20.47
2023-08-14T11:50:08.454Z,20.72
2023-08-14T11:53:12.900Z,20.71
2023-08-14T11:56:16.042Z,20.97
2023-08-14T11:59:19.330Z,21.03
2023-08-14T12:02:22.577Z,20.38
2023-08-14T12:05:26.377Z,20.70
2023-08-14T12:08:29.876Z,21.28
2023-08-14T12:11:32.544Z,20.95
2023-08-14T12:14:49.083Z,21.40
2023-08-14T12:17:52.642Z,20.74
2023-08-14T12:20:55.782Z,20.77
2023-08-14T12:23:58.339Z,20.33
2023-08-14T12:27:01.003Z,21.12
2023-08-14T12:30:04.075Z,21.13
2023-08-14T12:33:06.908Z,21.07
2023-08-14T12:36:11.391Z,21.23
2023-08-14T12:39:14.031Z,21.54
2023-08-14T12:42:16.727Z,22.00
2023-08-14T12:45:19.270Z,21.90
2023-08-14T12:48:21.961Z,22.10
2023-08-14T12:51:24.646Z,21.69
2023-08-14T12:54:27.649Z,22.25
2023-08-14T12:57:30.265Z,22.40
2023-08-14T13:00:33.319Z,21.87
2023-08-14T13:03:38.020Z,22.19
2023-08-14T13:06:41.404Z,22.13
2023-08-14T13:09:44.125Z,22.76
2023-08-14T13:12:46.874Z,23.08
2023-08-14T13:15:49.500Z,22.73
2023-08-14T13:18:52.109Z,22.35
2023-08-14T13:21:54.762Z,21.99
2023-08-14T13:24:57.416Z,22.59
2023-08-14T13:28:00.131Z,22.36
2023-08-14T13:31:06.790Z,22.46
2023-08-14T13:34:09.456Z,21.88
2023-08-14T13:37:12.019Z,22.59
2023-08-14T13:40:14.614Z,22.79
2023-08-14T13:43:17.513Z,22.70
2023-08-14T13:46:20.173Z,23.31
2023-08-14T13:49:22.922Z,23.60
2023-08-14T13:52:26.469Z,24.12
2023-08-14T13:55:30.544Z,24.42
2023-08-14T13:58:33.264Z,24.42
2023-08-14T14:01:36.085Z,24.93
2023-08-14T14:04:40.297Z,25.10
2023-08-14T14:07:47.611Z,25.06
2023-08-14T14:10:54.770Z,25.37
2023-08-14T14:13:57.227Z,25.24
2023-08-14T14:17:04.222Z,25.23
2023-08-14T14:20:10.826Z,25.40
2023-08-14T14:23:13.735Z,25.57
2023-08-14T14:26:16.085Z,25.76
2023-08-14T14:29:19.543Z,25.99
2023-08-14T14:32:22.111Z,26.17
2023-08-14T14:35:25.723Z,26.36
2023-08-14T14:38:28.207Z,26.75
2023-08-14T14:41:31.208Z,26.72
2023-08-14T14:44:33.678Z,26.89
2023-08-14T14:47:36.699Z,27.02
2023-08-14T14:50:39.094Z,26.71
2023-08-14T14:53:42.042Z,27.07
2023-08-14T14:56:44.418Z,27.28
2023-08-14T14:59:50.812Z,27.45
2023-08-14T15:02:53.803Z,27.49
2023-08-14T15:05:56.806Z,27.47
2023-08-14T15:08:59.145Z,27.55
2023-08-14T15:12:02.173Z,27.54
2023-08-14T15:15:04.772Z,27.75
2023-08-14T15:18:08.442Z,28.22
2023-08-14T15:21:10.815Z,28.14
2023-08-14T15:24:13.849Z,28.63
2023-08-14T15:27:16.190Z,28.70
2023-08-14T15:30:19.210Z,28.66
2023-08-14T15:33:22.971Z,29.14
2023-08-14T15:36:26.011Z,29.13
2023-08-14T15:39:31.663Z,29.09
2023-08-14T15:42:35.101Z,29.08
2023-08-14T15:45:37.570Z,29.37
2023-08-14T15:48:41.326Z,29.41
2023-08-14T15:51:43.674Z,29.18
2023-08-14T15:54:53.561Z,29.25
2023-08-14T15:57:56.387Z,29.52
2023-08-14T16:00:59.381Z,30.03
2023-08-14T16:04:02.050Z,30.11
2023-08-14T16:07:04.733Z,30.24
2023-08-14T16:10:07.864Z,30.39
2023-08-14T16:13:10.686Z,30.44
2023-08-14T16:16:13.359Z,30.68
2023-08-14T16:19:33.320Z,30.67
2023-08-14T16:22:36.413Z,30.67
2023-08-14T16:25:38.886Z,31.27
2023-08-14T16:28:41.783Z,31.33
2023-08-14T16:31:44.150Z,31.40
2023-08-14T16:34:48.811Z,31.41
2023-08-14T16:37:51.270Z,31.39
2023-08-14T16:40:54.270Z,31.33
2023-08-14T16:43:56.758Z,31.49
2023-08-14T16:46:59.678Z,31.73
2023-08-14T16:50:02.069Z,31.91
2023-08-14T16:53:05.070Z,31.99
2023-08-14T16:56:07.403Z,32.16
2023-08-14T16:59:10.298Z,32.34
2023-08-14T17:02:13.509Z,32.61
2023-08-14T17:05:16.577Z,32.72
2023-08-14T17:08:19.049Z,33.02
2023-08-14T17:11:22.974Z,33.09
2023-08-14T17:14:27.221Z,33.03
2023-08-14T17:17:32.354Z,32.79
2023-08-14T17:20:34.820Z,32.72
2023-08-14T17:23:37.645Z,32.67
2023-08-14T17:26:40.427Z,32.68
2023-08-14T17:29:43.345Z,33.13
2023-08-14T17:32:45.646Z,33.37
2023-08-14T17:35:48.961Z,33.36
2023-08-14T17:38:51.396Z,33.58
2023-08-14T17:41:57.416Z,33.62
2023-08-14T17:45:00.155Z,33.70
2023-08-14T17:48:03.183Z,33.73
2023-08-14T17:51:05.579Z,33.89
2023-08-14T17:54:08.572Z,33.99
2023-08-14T17:57:10.987Z,34.36
2023-08-14T18:00:13.949Z,34.49
2023-08-14T18:03:16.295Z,34.83
2023-08-14T18:06:19.314Z,35.67
2023-08-14T18:09:23.523Z,35.95
2023-08-14T18:12:26.601Z,36.26
2023-08-14T18:15:28.893Z,36.69
2023-08-14T18:18:31.814Z,37.02
2023-08-14T18:21:36.681Z,37.18
2023-08-14T18:24:40.012Z,37.37
2023-08-14T18:27:42.552Z,37.62
2023-08-14T18:30:45.448Z,37.94
2023-08-14T18:33:47.819Z,38.24
2023-08-14T18:36:50.702Z,38.52
2023-08-14T18:39:53.029Z,38.84
2023-08-14T18:42:55.963Z,39.05
2023-08-14T18:45:58.897Z,39.22
2023-08-14T18:49:01.773Z,39.45
2023-08-14T18:52:04.228Z,39.56
2023-08-14T18:55:07.465Z,39.81
2023-08-14T18:58:12.249Z,40.09
2023-08-14T19:01:15.201Z,40.38
2023-08-14T19:04:25.698Z,40.58
2023-08-14T19:07:36.143Z,40.66
2023-08-14T19:10:38.521Z,40.75
2023-08-14T19:13:42.905Z,40.97
2023-08-14T19:16:45.264Z,41.31
2023-08-14T19:19:48.239Z,41.36
2023-08-14T19:22:51.265Z,41.36
2023-08-14T19:25:54.226Z,41.65
2023-08-14T19:28:56.595Z,41.83
2023-08-14T19:31:59.834Z,41.94
2023-08-14T19:35:02.222Z,42.22
2023-08-14T19:38:06.535Z,42.25
2023-08-14T19:41:09.308Z,42.56
2023-08-14T19:44:12.304Z,42.69
2023-08-14T19:47:16.173Z,42.88
2023-08-14T19:50:19.225Z,42.94
2023-08-14T19:53:21.773Z,43.03
2023-08-14T19:56:24.785Z,43.28
2023-08-14T19:59:27.193Z,43.49
2023-08-14T20:02:30.141Z,43.47
2023-08-14T20:05:32.971Z,43.77
2023-08-14T20:08:35.554Z,43.92
2023-08-14T20:11:38.173Z,44.02
2023-08-14T20:14:41.380Z,44.15
2023-08-14T20:17:44.149Z,44.26
2023-08-14T20:20:47.148Z,44.49
2023-08-14T20:23:49.882Z,44.57
2023-08-14T20:26:52.558Z,44.77
2023-08-14T20:29:55.120Z,44.91
2023-08-14T20:32:57.876Z,44.98
2023-08-14T20:36:00.879Z,44.90
2023-08-14T20:39:03.800Z,44.95
2023-08-14T20:42:06.633Z,45.28
2023-08-14T20:45:09.782Z,45.43
2023-08-14T20:48:13.377Z,45.63
2023-08-14T20:51:17.660Z,45.46
2023-08-14T20:54:20.534Z,45.73
2023-08-14T20:57:23.624Z,45.85
2023-08-14T21:00:29.032Z,46.18
2023-08-14T21:03:33.294Z,46.41
2023-08-14T21:06:35.983Z,46.55
2023-08-14T21:09:38.690Z,46.72
2023-08-14T21:12:41.514Z,46.88
2023-08-14T21:15:44.216Z,47.01
2023-08-14T21:18:46.820Z,46.69
2023-08-14T21:21:49.428Z,47.00
2023-08-14T21:24:52.105Z,47.02
2023-08-14T21:27:54.687Z,47.06
2023-08-14T21:30:58.031Z,47.26
2023-08-14T21:34:00.734Z,47.65
2023-08-14T21:37:03.628Z,47.94
2023-08-14T21:40:06.795Z,48.08
2023-08-14T21:43:09.592Z,48.21
2023-08-14T21:46:12.440Z,48.31
2023-08-14T21:49:16.367Z,48.50
2023-08-14T21:52:19.010Z,48.74
2023-08-14T21:55:21.686Z,48.77
2023-08-14T21:58:24.584Z,49.00
2023-08-14T22:01:27.380Z,49.13
2023-08-14T22:04:30.411Z,49.18
2023-08-14T22:07:33.438Z,49.27
2023-08-14T22:10:36.400Z,49.38
2023-08-14T22:13:38.721Z,49.40
2023-08-14T22:16:41.639Z,49.33
2023-08-14T22:19:44.149Z,49.31
2023-08-14T22:22:46.973Z,49.32
2023-08-14T22:25:49.319Z,50.02
2023-08-14T22:28:52.207Z,50.30
2023-08-14T22:31:54.577Z,50.49
2023-08-14T22:34:57.474Z,50.60
2023-08-14T22:37:59.800Z,50.67
2023-08-14T22:41:02.670Z,50.74
2023-08-14T22:44:05.084Z,50.80
2023-08-14T22:47:08.100Z,50.63
2023-08-14T22:50:10.708Z,50.82
2023-08-14T22:53:13.667Z,50.93
2023-08-14T22:56:16.025Z,51.08
2023-08-14T22:59:18.997Z,51.20
2023-08-14T23:02:21.393Z,51.36
2023-08-14T23:05:25.107Z,51.47
2023-08-14T23:08:27.450Z,51.55
2023-08-14T23:11:34.774Z,51.86
2023-08-14T23:14:37.094Z,52.06
2023-08-14T23:17:39.999Z,52.09
2023-08-14T23:20:42.394Z,52.10
2023-08-14T23:23:45.261Z,52.15
2023-08-14T23:26:47.537Z,52.40
2023-08-14T23:29:50.591Z,52.81
2023-08-14T23:32:52.888Z,52.98
2023-08-14T23:35:55.793Z,53.15
2023-08-14T23:38:58.048Z,53.28
2023-08-14T23:42:01.255Z,53.17
2023-08-14T23:45:03.678Z,53.27
2023-08-14T23:48:08.059Z,53.62
2023-08-14T23:51:10.914Z,53.62
2023-08-14T23:54:13.801Z,53.57
2023-08-14T23:57:16.285Z,53.67
